createdAt,value
2022-12-31T00:00:07.718Z,11.54
2022-12-31T00:02:34.398Z,11.48
2022-12-31T00:05:00.899Z,11.53
2022-12-31T00:07:27.396Z,11.51
2022-12-31T00:09:53.885Z,11.48
2022-12-31T00:12:20.289Z,11.51
2022-12-31T00:14:47.874Z,11.46
2022-12-31T00:17:14.373Z,11.49
2022-12-31T00:19:40.849Z,11.47
2022-12-31T00:22:07.311Z,11.46
2022-12-31T00:24:35.887Z,11.46
2022-12-31T00:27:02.473Z,11.42
2022-12-31T00:29:28.934Z,11.44
2022-12-31T00:31:55.495Z,11.40
2022-12-31T00:34:22.195Z,11.40
2022-12-31T00:36:49.021Z,11.35
2022-12-31T00:39:15.661Z,11.28
2022-12-31T00:41:44.050Z,11.28
2022-12-31T00:44:13.930Z,11.29
2022-12-31T00:49:06.064Z,11.25
2022-12-31T00:51:32.659Z,11.21
2022-12-31T00:53:59.311Z,11.21
2022-12-31T00:56:29.184Z,11.18
2022-12-31T00:58:56.521Z,11.16
2022-12-31T01:01:38.192Z,11.15
2022-12-31T01:04:11.594Z,11.11
2022-12-31T01:06:38.828Z,11.10
2022-12-31T01:09:06.784Z,11.09
2022-12-31T01:11:33.410Z,11.09
2022-12-31T01:14:14.051Z,11.07
2022-12-31T01:16:43.010Z,11.06
2022-12-31T01:19:14.632Z,11.03
2022-12-31T01:21:42.944Z,11.03
2022-12-31T01:24:11.195Z,10.99
2022-12-31T01:26:38.165Z,11.00
2022-12-31T01:29:06.106Z,10.98
2022-12-31T01:31:34.040Z,10.98
2022-12-31T01:34:00.702Z,10.96
2022-12-31T01:36:30.225Z,10.97
2022-12-31T01:38:58.823Z,10.98
2022-12-31T01:41:31.833Z,10.99
2022-12-31T01:44:13.610Z,10.97
2022-12-31T01:46:53.336Z,10.97
2022-12-31T01:49:22.450Z,10.93
2022-12-31T01:51:54.318Z,10.95
2022-12-31T01:54:25.608Z,10.93
2022-12-31T01:56:53.653Z,10.95
2022-12-31T01:59:22.705Z,10.91
2022-12-31T02:01:55.106Z,10.91
2022-12-31T02:04:24.045Z,10.91
2022-12-31T02:06:56.240Z,10.89
2022-12-31T02:09:22.804Z,10.88
2022-12-31T02:11:49.283Z,10.89
2022-12-31T02:14:20.703Z,10.85
2022-12-31T02:16:50.177Z,10.83
2022-12-31T02:20:04.522Z,10.81
2022-12-31T02:22:42.605Z,10.82
2022-12-31T02:25:32.562Z,10.80
2022-12-31T02:28:44.348Z,10.75
2022-12-31T02:31:10.755Z,10.75
2022-12-31T02:33:43.891Z,10.70
2022-12-31T02:36:18.360Z,10.70
2022-12-31T02:38:47.415Z,10.70
2022-12-31T02:41:36.056Z,10.70
2022-12-31T02:44:18.580Z,10.67
2022-12-31T02:47:11.247Z,10.65
2022-12-31T02:50:10.346Z,10.65
2022-12-31T02:52:45.756Z,10.63
2022-12-31T02:55:35.206Z,10.62
2022-12-31T02:58:22.722Z,10.59
2022-12-31T03:01:12.557Z,10.59
2022-12-31T03:03:39.939Z,10.59
2022-12-31T03:06:08.901Z,10.59
2022-12-31T03:08:55.872Z,10.58
2022-12-31T03:11:42.183Z,10.54
2022-12-31T03:14:08.621Z,10.53
2022-12-31T03:16:35.143Z,10.53
2022-12-31T03:19:20.388Z,10.51
2022-12-31T03:22:05.278Z,10.52
2022-12-31T03:24:50.226Z,10.49
2022-12-31T03:27:16.624Z,10.45
2022-12-31T03:29:43.028Z,10.47
2022-12-31T03:32:09.478Z,10.43
2022-12-31T03:34:35.922Z,10.45
2022-12-31T03:37:02.324Z,10.44
2022-12-31T03:39:28.741Z,10.47
2022-12-31T03:41:55.213Z,10.48
2022-12-31T03:44:21.859Z,10.47
2022-12-31T03:46:48.274Z,10.48
2022-12-31T03:49:14.816Z,10.50
2022-12-31T03:51:41.262Z,10.51
2022-12-31T03:54:07.789Z,10.50
2022-12-31T03:56:34.347Z,10.48
2022-12-31T03:59:00.798Z,10.49
2022-12-31T04:01:27.459Z,10.47
2022-12-31T04:03:54.099Z,10.50
2022-12-31T04:06:20.685Z,10.46
2022-12-31T04:08:47.131Z,10.48
2022-12-31T04:11:18.924Z,10.45
2022-12-31T04:13:47.271Z,10.43
2022-12-31T04:16:13.912Z,10.45
2022-12-31T04:18:40.365Z,10.45
2022-12-31T04:21:06.960Z,10.44
2022-12-31T04:23:33.442Z,10.44
2022-12-31T04:25:59.909Z,10.43
2022-12-31T04:28:26.325Z,10.43
2022-12-31T04:30:52.842Z,10.42
2022-12-31T04:33:19.308Z,10.43
2022-12-31T04:35:45.725Z,10.43
2022-12-31T04:38:12.199Z,10.43
2022-12-31T04:41:01.428Z,10.43
2022-12-31T04:43:27.885Z,10.41
2022-12-31T04:45:54.418Z,10.42
2022-12-31T04:48:20.931Z,10.43
2022-12-31T04:50:47.571Z,10.42
2022-12-31T04:53:14.035Z,10.42
2022-12-31T04:55:41.551Z,10.43
2022-12-31T04:58:08.004Z,10.45
2022-12-31T05:00:34.447Z,10.48
2022-12-31T05:03:00.959Z,10.49
2022-12-31T05:05:27.480Z,10.53
2022-12-31T05:07:53.879Z,10.54
2022-12-31T05:10:20.327Z,10.59
2022-12-31T05:12:46.745Z,10.60
2022-12-31T05:15:13.250Z,10.59
2022-12-31T05:17:39.719Z,10.62
2022-12-31T05:20:06.903Z,10.61
2022-12-31T05:22:33.383Z,10.66
2022-12-31T05:25:00.837Z,10.67
2022-12-31T05:27:28.733Z,10.70
2022-12-31T05:29:55.301Z,10.69
2022-12-31T05:32:22.009Z,10.75
2022-12-31T05:34:48.421Z,10.72
2022-12-31T05:37:14.870Z,10.74
2022-12-31T05:39:41.320Z,10.75
2022-12-31T05:42:07.726Z,10.75
2022-12-31T05:44:34.150Z,10.75
2022-12-31T05:47:00.652Z,10.76
2022-12-31T05:49:27.093Z,10.77
2022-12-31T05:51:53.630Z,10.79
2022-12-31T05:54:20.131Z,10.81
2022-12-31T05:56:46.570Z,10.82
2022-12-31T05:59:12.999Z,10.80
2022-12-31T06:01:39.563Z,10.81
2022-12-31T06:04:06.118Z,10.79
2022-12-31T06:06:32.588Z,10.77
2022-12-31T06:08:59.148Z,10.81
2022-12-31T06:11:25.627Z,10.81
2022-12-31T06:13:52.057Z,10.82
2022-12-31T06:16:18.604Z,10.82
2022-12-31T06:18:47.701Z,10.81
2022-12-31T06:21:15.909Z,10.83
2022-12-31T06:23:42.353Z,10.84
2022-12-31T06:26:09.109Z,10.88
2022-12-31T06:28:35.829Z,10.93
2022-12-31T06:31:07.592Z,10.94
2022-12-31T06:33:34.815Z,10.97
2022-12-31T06:36:04.702Z,11.02
2022-12-31T06:38:33.189Z,11.02
2022-12-31T06:41:07.123Z,11.10
2022-12-31T06:43:35.113Z,11.10
2022-12-31T06:46:06.030Z,11.23
2022-12-31T06:48:32.648Z,11.27
2022-12-31T06:51:10.625Z,11.38
2022-12-31T06:53:40.326Z,11.52
2022-12-31T06:56:14.620Z,11.53
2022-12-31T06:58:41.489Z,11.66
2022-12-31T07:01:29.812Z,11.66
2022-12-31T07:04:16.794Z,11.83
2022-12-31T07:06:51.207Z,11.88
2022-12-31T07:09:29.841Z,11.95
2022-12-31T07:12:05.097Z,12.06
2022-12-31T07:14:45.326Z,12.06
2022-12-31T07:17:51.018Z,11.99
2022-12-31T07:20:18.843Z,12.01
2022-12-31T07:22:46.655Z,11.97
2022-12-31T07:25:18.019Z,12.04
2022-12-31T07:28:20.125Z,12.09
2022-12-31T07:31:07.616Z,12.09
2022-12-31T07:33:51.797Z,12.05
2022-12-31T07:36:31.603Z,12.09
2022-12-31T07:39:03.952Z,12.14
2022-12-31T07:41:58.703Z,12.17
2022-12-31T07:44:58.417Z,12.20
2022-12-31T07:47:27.594Z,12.18
2022-12-31T07:49:55.171Z,12.29
2022-12-31T07:52:22.572Z,12.26
2022-12-31T07:54:49.241Z,12.37
2022-12-31T07:57:18.065Z,12.38
2022-12-31T08:00:04.152Z,12.33
2022-12-31T08:02:48.869Z,12.31
2022-12-31T08:05:49.169Z,12.27
2022-12-31T08:08:40.569Z,12.16
2022-12-31T08:11:19.984Z,12.07
2022-12-31T08:13:47.609Z,12.02
2022-12-31T08:16:14.616Z,12.04
2022-12-31T08:18:41.840Z,12.03
2022-12-31T08:21:30.995Z,12.03
2022-12-31T08:24:17.718Z,12.03
2022-12-31T08:27:10.050Z,12.02
2022-12-31T08:29:52.805Z,12.03
2022-12-31T08:32:30.051Z,12.03
2022-12-31T08:35:21.222Z,12.07
2022-12-31T08:37:56.707Z,12.05
2022-12-31T08:40:42.169Z,12.06
2022-12-31T08:43:28.449Z,12.00
2022-12-31T08:45:57.755Z,12.01
2022-12-31T08:48:38.631Z,11.99
2022-12-31T08:51:05.615Z,12.00
2022-12-31T08:53:32.444Z,12.00
2022-12-31T08:56:10.784Z,12.02
2022-12-31T08:58:49.564Z,12.02
2022-12-31T09:01:21.780Z,12.05
2022-12-31T09:04:01.484Z,12.09
2022-12-31T09:06:47.723Z,12.06
2022-12-31T09:09:23.384Z,12.08
2022-12-31T09:11:57.512Z,12.11
2022-12-31T09:14:42.482Z,12.12
2022-12-31T09:17:41.984Z,12.20
2022-12-31T09:20:17.731Z,12.24
2022-12-31T09:22:44.444Z,12.28
2022-12-31T09:25:16.722Z,12.33
2022-12-31T09:28:05.210Z,12.34
2022-12-31T09:30:56.685Z,12.31
2022-12-31T09:33:52.435Z,12.48
2022-12-31T09:36:28.455Z,12.51
2022-12-31T09:39:11.592Z,12.60
2022-12-31T09:41:56.259Z,12.76
2022-12-31T09:44:22.641Z,12.81
2022-12-31T09:47:23.207Z,12.75
2022-12-31T09:50:22.534Z,12.78
2022-12-31T09:53:24.455Z,12.88
2022-12-31T09:56:09.489Z,12.95
2022-12-31T09:58:45.158Z,13.13
2022-12-31T10:01:35.460Z,13.24
2022-12-31T10:04:06.891Z,13.35
2022-12-31T10:06:52.302Z,13.33
2022-12-31T10:09:32.073Z,13.42
2022-12-31T10:12:04.715Z,13.42
2022-12-31T10:14:47.389Z,13.49
2022-12-31T10:17:33.877Z,13.48
2022-12-31T10:20:31.413Z,13.58
2022-12-31T10:23:20.741Z,13.53
2022-12-31T10:26:06.201Z,13.68
2022-12-31T10:28:55.125Z,13.63
2022-12-31T10:31:40.196Z,13.73
2022-12-31T10:34:13.966Z,13.76
2022-12-31T10:37:06.204Z,13.68
2022-12-31T10:39:54.677Z,13.75
2022-12-31T10:42:39.607Z,13.75
2022-12-31T10:45:34.019Z,13.74
2022-12-31T10:48:43.286Z,13.71
2022-12-31T10:51:22.054Z,13.76
2022-12-31T10:53:57.676Z,13.74
2022-12-31T10:56:58.119Z,13.76
2022-12-31T10:59:36.670Z,13.74
2022-12-31T11:02:34.824Z,13.71
2022-12-31T11:05:39.725Z,13.65
2022-12-31T11:08:33.936Z,13.61
2022-12-31T11:11:23.720Z,13.59
2022-12-31T11:14:38.129Z,13.56
2022-12-31T11:17:24.626Z,13.63
2022-12-31T11:20:25.131Z,13.64
2022-12-31T11:23:29.248Z,13.70
2022-12-31T11:26:23.432Z,13.78
2022-12-31T11:29:08.819Z,13.78
2022-12-31T11:31:58.294Z,14.00
2022-12-31T11:34:45.709Z,14.15
2022-12-31T11:37:49.497Z,14.20
2022-12-31T11:40:34.710Z,14.31
2022-12-31T11:43:15.350Z,14.39
2022-12-31T11:46:06.181Z,14.28
2022-12-31T11:48:45.056Z,14.23
2022-12-31T11:51:36.458Z,14.26
2022-12-31T11:54:33.738Z,14.17
2022-12-31T11:57:13.033Z,14.11
2022-12-31T11:59:39.830Z,14.04
2022-12-31T12:02:25.826Z,13.97
2022-12-31T12:04:53.401Z,14.00
2022-12-31T12:07:20.806Z,13.95
2022-12-31T12:09:47.597Z,14.01
2022-12-31T12:12:15.658Z,14.14
2022-12-31T12:14:45.387Z,14.14
2022-12-31T12:17:34.285Z,14.12
2022-12-31T12:20:15.414Z,14.16
2022-12-31T12:22:50.560Z,14.05
2022-12-31T12:25:23.379Z,14.15
2022-12-31T12:27:49.932Z,14.18
2022-12-31T12:30:22.680Z,14.06
2022-12-31T12:32:58.164Z,14.00
2022-12-31T12:35:28.430Z,13.95
2022-12-31T12:38:00.471Z,13.90
2022-12-31T12:40:33.891Z,13.85
2022-12-31T12:43:02.770Z,13.84
2022-12-31T12:45:42.267Z,13.83
2022-12-31T12:48:17.294Z,13.82
2022-12-31T12:50:47.024Z,13.82
2022-12-31T12:53:31.593Z,13.90
2022-12-31T12:56:25.995Z,13.86
2022-12-31T12:59:17.393Z,13.97
2022-12-31T13:02:17.521Z,14.07
2022-12-31T13:04:50.201Z,14.03
2022-12-31T13:07:51.307Z,14.01
2022-12-31T13:10:28.662Z,13.93
2022-12-31T13:13:24.579Z,13.91
2022-12-31T13:16:10.031Z,13.96
2022-12-31T13:18:46.983Z,13.91
2022-12-31T13:21:46.475Z,13.88
2022-12-31T13:24:40.101Z,13.93
2022-12-31T13:27:18.390Z,13.92
2022-12-31T13:29:47.771Z,13.80
2022-12-31T13:32:21.763Z,13.81
2022-12-31T13:34:54.156Z,13.86
2022-12-31T13:37:27.542Z,13.77
2022-12-31T13:40:05.116Z,13.71
2022-12-31T13:42:40.498Z,13.71
2022-12-31T13:45:16.639Z,13.74
2022-12-31T13:47:52.567Z,13.75
2022-12-31T13:50:32.611Z,13.67
2022-12-31T13:53:07.101Z,13.71
2022-12-31T13:55:41.520Z,13.72
2022-12-31T13:58:37.112Z,13.73
2022-12-31T14:01:17.193Z,13.69
2022-12-31T14:03:56.797Z,13.73
2022-12-31T14:06:43.243Z,13.74
2022-12-31T14:09:17.846Z,13.80
2022-12-31T14:12:13.703Z,13.84
2022-12-31T14:14:54.763Z,13.84
2022-12-31T14:17:42.943Z,13.86
2022-12-31T14:20:22.094Z,13.81
2022-12-31T14:23:06.343Z,13.82
2022-12-31T14:25:41.479Z,13.89
2022-12-31T14:28:17.649Z,14.05
2022-12-31T14:30:47.120Z,14.11
2022-12-31T14:33:39.024Z,14.05
2022-12-31T14:36:43.052Z,13.95
2022-12-31T14:40:03.906Z,13.96
2022-12-31T14:43:01.741Z,13.95
2022-12-31T14:46:01.809Z,13.99
2022-12-31T14:48:54.753Z,13.95
2022-12-31T14:51:21.475Z,13.87
2022-12-31T14:53:56.892Z,13.88
2022-12-31T14:56:37.181Z,13.87
2022-12-31T14:59:03.932Z,13.99
2022-12-31T15:01:30.633Z,13.91
2022-12-31T15:03:58.707Z,13.96
2022-12-31T15:06:43.576Z,14.00
2022-12-31T15:09:17.848Z,14.22
2022-12-31T15:12:03.163Z,14.10
2022-12-31T15:14:54.833Z,14.11
2022-12-31T15:17:36.175Z,14.17
2022-12-31T15:20:30.791Z,14.15
2022-12-31T15:22:57.447Z,14.14
2022-12-31T15:25:40.269Z,14.14
2022-12-31T15:28:32.157Z,14.16
2022-12-31T15:31:19.091Z,14.31
2022-12-31T15:33:57.403Z,14.36
2022-12-31T15:36:27.206Z,14.32
2022-12-31T15:39:07.755Z,14.28
2022-12-31T15:42:18.805Z,14.33
2022-12-31T15:45:02.575Z,14.31
2022-12-31T15:47:35.629Z,14.33
2022-12-31T15:50:21.520Z,14.23
2022-12-31T15:52:57.986Z,14.31
2022-12-31T15:55:33.237Z,14.39
2022-12-31T15:58:05.220Z,14.34
2022-12-31T16:00:50.274Z,14.36
2022-12-31T16:03:23.288Z,14.54
2022-12-31T16:05:50.393Z,14.50
2022-12-31T16:08:21.299Z,14.35
2022-12-31T16:10:48.222Z,14.31
2022-12-31T16:13:23.998Z,14.30
2022-12-31T16:15:57.481Z,14.26
2022-12-31T16:18:24.197Z,14.26
2022-12-31T16:20:52.082Z,14.22
2022-12-31T16:23:22.797Z,14.25
2022-12-31T16:25:53.052Z,14.41
2022-12-31T16:28:22.284Z,14.31
2022-12-31T16:31:01.870Z,14.23
2022-12-31T16:33:29.007Z,14.20
2022-12-31T16:35:58.259Z,14.21
2022-12-31T16:38:36.252Z,14.31
2022-12-31T16:41:02.686Z,14.32
2022-12-31T16:43:40.768Z,14.11
2022-12-31T16:46:10.344Z,14.18
2022-12-31T16:48:37.807Z,14.06
2022-12-31T16:51:05.407Z,14.23
2022-12-31T16:53:36.661Z,14.15
2022-12-31T16:56:10.993Z,14.22
2022-12-31T16:58:41.167Z,14.16
2022-12-31T17:01:14.244Z,14.14
2022-12-31T17:03:44.808Z,14.19
2022-12-31T17:06:17.204Z,14.21
2022-12-31T17:09:04.967Z,14.14
2022-12-31T17:11:35.695Z,14.15
2022-12-31T17:14:08.236Z,14.01
2022-12-31T17:17:03.264Z,14.09
2022-12-31T17:19:48.840Z,14.04
2022-12-31T17:22:32.812Z,13.96
2022-12-31T17:25:09.346Z,14.09
2022-12-31T17:27:36.701Z,14.01
2022-12-31T17:30:23.263Z,13.92
2022-12-31T17:32:50.195Z,14.01
2022-12-31T17:35:41.898Z,13.90
2022-12-31T17:38:23.478Z,13.94
2022-12-31T17:40:53.108Z,14.01
2022-12-31T17:43:22.402Z,13.84
2022-12-31T17:45:51.369Z,13.80
2022-12-31T17:48:19.964Z,13.92
2022-12-31T17:50:54.760Z,13.86
2022-12-31T17:53:21.531Z,13.90
2022-12-31T17:55:53.561Z,13.80
2022-12-31T17:58:29.920Z,13.87
2022-12-31T18:00:57.273Z,13.89
2022-12-31T18:03:24.050Z,13.87
2022-12-31T18:05:50.563Z,13.84
2022-12-31T18:08:17.094Z,13.93
2022-12-31T18:10:44.747Z,14.01
2022-12-31T18:13:17.351Z,14.01
2022-12-31T18:15:43.834Z,14.16
2022-12-31T18:18:24.130Z,14.16
2022-12-31T18:20:54.964Z,14.06
2022-12-31T18:23:28.611Z,14.05
2022-12-31T18:25:55.060Z,13.95
2022-12-31T18:28:21.835Z,14.08
2022-12-31T18:30:48.919Z,14.15
2022-12-31T18:33:22.571Z,14.15
2022-12-31T18:36:08.348Z,14.14
2022-12-31T18:38:35.743Z,14.15
2022-12-31T18:41:02.584Z,14.14
2022-12-31T18:43:29.097Z,14.31
2022-12-31T18:45:55.884Z,14.19
2022-12-31T18:48:22.465Z,14.15
2022-12-31T18:50:49.361Z,14.23
2022-12-31T18:53:18.845Z,14.17
2022-12-31T18:55:56.507Z,14.18
2022-12-31T18:58:23.852Z,14.10
2022-12-31T19:00:51.549Z,14.16
2022-12-31T19:03:23.655Z,14.10
2022-12-31T19:05:50.953Z,14.14
2022-12-31T19:08:19.333Z,14.09
2022-12-31T19:10:46.408Z,14.16
2022-12-31T19:13:14.850Z,14.20
2022-12-31T19:15:50.123Z,14.21
2022-12-31T19:18:17.013Z,14.29
2022-12-31T19:20:43.710Z,14.13
2022-12-31T19:23:18.348Z,14.08
2022-12-31T19:25:46.538Z,14.08
2022-12-31T19:28:21.174Z,14.23
2022-12-31T19:30:47.673Z,14.21
2022-12-31T19:33:15.129Z,14.13
2022-12-31T19:35:42.330Z,14.10
2022-12-31T19:38:34.985Z,14.12
2022-12-31T19:41:02.382Z,14.10
2022-12-31T19:43:29.152Z,14.13
2022-12-31T19:45:55.867Z,14.03
2022-12-31T19:48:32.019Z,14.12
2022-12-31T19:50:59.331Z,14.10
2022-12-31T19:53:27.193Z,14.04
2022-12-31T19:55:54.127Z,13.97
2022-12-31T19:58:26.088Z,13.98
2022-12-31T20:00:58.449Z,13.95
2022-12-31T20:03:28.526Z,14.03
2022-12-31T20:06:04.437Z,14.08
2022-12-31T20:08:31.032Z,14.05
2022-12-31T20:10:58.981Z,14.03
2022-12-31T20:13:26.702Z,14.13
2022-12-31T20:15:54.207Z,14.12
2022-12-31T20:18:22.380Z,14.05
2022-12-31T20:20:55.286Z,14.22
2022-12-31T20:23:22.345Z,14.19
2022-12-31T20:25:59.457Z,14.17
2022-12-31T20:28:26.280Z,14.20
2022-12-31T20:30:52.874Z,14.18
2022-12-31T20:33:19.665Z,14.31
2022-12-31T20:35:46.239Z,14.17
2022-12-31T20:38:12.701Z,14.13
2022-12-31T20:40:44.580Z,14.32
2022-12-31T20:43:13.128Z,14.36
2022-12-31T20:45:41.255Z,14.23
2022-12-31T20:48:07.806Z,14.18
2022-12-31T20:50:34.359Z,14.16
2022-12-31T20:53:00.849Z,14.24
2022-12-31T20:55:27.525Z,14.31
2022-12-31T20:57:54.021Z,14.26
2022-12-31T21:00:20.577Z,14.16
2022-12-31T21:02:56.298Z,14.16
2022-12-31T21:05:27.139Z,14.17
2022-12-31T21:07:53.857Z,14.13
2022-12-31T21:10:20.347Z,14.17
2022-12-31T21:12:53.245Z,14.22
2022-12-31T21:15:21.622Z,14.26
2022-12-31T21:17:48.271Z,14.24
2022-12-31T21:20:14.786Z,14.19
2022-12-31T21:22:41.334Z,14.26
2022-12-31T21:25:08.044Z,14.08
2022-12-31T21:27:35.892Z,14.24
2022-12-31T21:30:18.099Z,14.39
2022-12-31T21:32:45.540Z,14.46
2022-12-31T21:35:41.630Z,14.36
2022-12-31T21:38:06.928Z,14.33
2022-12-31T21:40:33.928Z,14.30
2022-12-31T21:43:00.488Z,14.41
2022-12-31T21:45:27.133Z,14.41
2022-12-31T21:48:12.324Z,14.36
2022-12-31T21:50:38.847Z,14.47
2022-12-31T21:53:05.363Z,14.44
2022-12-31T21:55:50.540Z,14.39
2022-12-31T21:58:26.472Z,14.39
2022-12-31T22:01:13.756Z,14.44
2022-12-31T22:03:40.586Z,14.45
2022-12-31T22:06:20.776Z,14.39
2022-12-31T22:08:50.433Z,14.42
2022-12-31T22:11:18.414Z,14.46
2022-12-31T22:13:45.042Z,14.50
2022-12-31T22:16:14.004Z,14.45
2022-12-31T22:18:43.037Z,14.34
2022-12-31T22:21:27.761Z,14.41
2022-12-31T22:23:56.545Z,14.57
2022-12-31T22:26:26.112Z,14.49
2022-12-31T22:28:52.812Z,14.53
2022-12-31T22:31:22.845Z,14.52
2022-12-31T22:33:49.394Z,14.43
2022-12-31T22:36:20.739Z,14.44
2022-12-31T22:38:47.603Z,14.42
2022-12-31T22:41:19.731Z,14.56
2022-12-31T22:43:48.821Z,14.48
2022-12-31T22:46:19.514Z,14.50
2022-12-31T22:48:46.435Z,14.59
2022-12-31T22:51:14.214Z,14.50
2022-12-31T22:53:41.429Z,14.51
2022-12-31T22:56:09.436Z,14.58
2022-12-31T22:58:36.749Z,14.43
2022-12-31T23:01:19.440Z,14.47
2022-12-31T23:03:51.225Z,14.35
2022-12-31T23:06:21.311Z,14.43
2022-12-31T23:09:07.142Z,14.42
2022-12-31T23:11:35.484Z,14.55
2022-12-31T23:14:21.201Z,14.41
2022-12-31T23:17:29.194Z,14.52
2022-12-31T23:20:26.783Z,14.52
2022-12-31T23:23:11.651Z,14.53
2022-12-31T23:25:52.155Z,14.55
2022-12-31T23:28:21.988Z,14.51
2022-12-31T23:30:48.600Z,14.53
2022-12-31T23:33:20.529Z,14.54
2022-12-31T23:35:47.462Z,14.56
2022-12-31T23:38:17.908Z,14.63
2022-12-31T23:40:45.471Z,14.62
2022-12-31T23:43:20.405Z,14.66
2022-12-31T23:45:49.398Z,14.57
2022-12-31T23:48:16.264Z,14.53
2022-12-31T23:50:45.378Z,14.60
2022-12-31T23:53:18.584Z,14.72
2022-12-31T23:55:45.285Z,14.64
2022-12-31T23:58:12.026Z,14.68
